Time;durP1;ratioP1;P1;durP2;ratioP2;P2;SDS_P1;SDS_P2;PMS_P1;PMS_P2;Temp;Humidity;BMP_temperature;BMP_pressure;BME280_temperature;BME280_humidity;BME280_pressure;Samples;Min_cycle;Max_cycle;Signal;HPM_P1;HPM_P2
2023/08/07 00:01:55;;;;;;;16.35;3.88;;;15.70;99.90;;;;;;6170694;23;20012;-91
2023/08/07 00:04:21;;;;;;;24.13;3.88;;;15.70;99.90;;;;;;6170846;23;20011;-89
2023/08/07 00:06:49;;;;;;;16.00;2.95;;;15.70;99.90;;;;;;6147547;23;20019;-90
2023/08/07 00:09:22;;;;;;;13.13;2.80;;;15.70;99.90;;;;;;6146575;23;20012;-90
2023/08/07 00:11:56;;;;;;;13.77;2.92;;;15.70;99.90;;;;;;6172322;23;20346;-91
2023/08/07 00:14:23;;;;;;;15.25;2.70;;;15.70;99.90;;;;;;6171187;23;20038;-90
2023/08/07 00:16:49;;;;;;;16.95;3.45;;;15.60;99.90;;;;;;6170744;23;20000;-90
2023/08/07 00:19:17;;;;;;;14.60;3.03;;;15.60;99.90;;;;;;6171552;23;20039;-89
2023/08/07 00:21:46;;;;;;;12.05;2.45;;;15.60;99.90;;;;;;6171471;23;20008;-89
2023/08/07 00:24:17;;;;;;;12.90;2.70;;;15.60;99.90;;;;;;6195722;23;20350;-90
2023/08/07 00:26:43;;;;;;;14.25;2.67;;;15.50;99.90;;;;;;6195616;23;20008;-89
2023/08/07 00:29:09;;;;;;;14.85;3.05;;;15.50;99.90;;;;;;6171284;23;20400;-90
2023/08/07 00:31:38;;;;;;;12.75;2.55;;;15.50;99.90;;;;;;6171398;23;20081;-89
2023/08/07 00:34:04;;;;;;;9.82;2.22;;;15.50;99.90;;;;;;6171335;23;20009;-90
2023/08/07 00:36:37;;;;;;;20.65;2.95;;;15.40;99.90;;;;;;6171192;23;20008;-89
2023/08/07 00:39:08;;;;;;;13.80;3.20;;;15.40;99.90;;;;;;6172368;23;20008;-90
2023/08/07 00:41:39;;;;;;;18.65;3.42;;;15.40;99.90;;;;;;6198582;23;20004;-89
2023/08/07 00:44:06;;;;;;;13.07;2.92;;;15.40;99.90;;;;;;6197936;23;20381;-87
2023/08/07 00:46:49;;;;;;;15.23;3.33;;;15.40;99.90;;;;;;6199429;23;20019;-90
2023/08/07 00:49:19;;;;;;;17.48;3.33;;;15.40;99.90;;;;;;6174024;23;20020;-89
2023/08/07 00:51:45;;;;;;;14.32;3.35;;;15.40;99.90;;;;;;6197525;23;20016;-89
2023/08/07 00:54:18;;;;;;;13.40;2.80;;;15.40;99.90;;;;;;6173910;23;20000;-90
2023/08/07 00:56:44;;;;;;;17.25;3.67;;;15.30;99.90;;;;;;6173223;23;19997;-90
2023/08/07 00:59:14;;;;;;;16.25;3.15;;;15.30;99.90;;;;;;6174175;23;20004;-90
2023/08/07 01:01:51;;;;;;;;;;;;;;;;;;;;;
2023/08/07 01:04:23;;;;;;;15.25;3.45;;;15.30;99.90;;;;;;6223002;23;20079;-90
2023/08/07 01:06:49;;;;;;;17.67;3.70;;;15.40;99.90;;;;;;6197938;23;20004;-90
2023/08/07 01:09:20;;;;;;;16.20;3.03;;;15.40;99.90;;;;;;6173286;23;20012;-90
2023/08/07 01:11:54;;;;;;;18.08;3.63;;;15.40;99.90;;;;;;6173141;23;20097;-89
2023/08/07 01:14:52;;;;;;;16.15;2.97;;;15.40;99.90;;;;;;6224077;23;20028;-89
2023/08/07 01:17:22;;;;;;;17.98;2.88;;;15.40;99.90;;;;;;6175099;23;20000;-89
2023/08/07 01:19:54;;;;;;;13.70;3.03;;;15.40;99.90;;;;;;6200287;23;20393;-89
2023/08/07 01:22:25;;;;;;;15.27;3.75;;;15.40;99.90;;;;;;6174791;23;20091;-90
2023/08/07 01:24:55;;;;;;;13.55;2.90;;;15.40;99.90;;;;;;6174601;23;20012;-91
2023/08/07 01:27:40;;;;;;;15.68;3.60;;;15.40;99.90;;;;;;6174937;23;20035;-89
2023/08/07 01:30:30;;;;;;;15.25;3.30;;;15.40;99.90;;;;;;6176058;23;20012;-87
2023/08/07 01:33:03;;;;;;;16.55;3.13;;;15.40;99.90;;;;;;6174969;23;20415;-90
2023/08/07 01:35:33;;;;;;;14.20;2.72;;;15.40;99.90;;;;;;6174740;23;20062;-91
2023/08/07 01:38:01;;;;;;;19.48;2.90;;;15.40;99.90;;;;;;6174674;23;20008;-89
2023/08/07 01:40:28;;;;;;;15.32;2.65;;;15.40;99.90;;;;;;6174688;23;20008;-88
2023/08/07 01:43:12;;;;;;;19.05;3.35;;;15.40;99.90;;;;;;6178128;23;20061;-88
2023/08/07 01:45:40;;;;;;;;;;;15.40;99.90;;;;;;6175318;23;20008;-89
2023/08/07 01:48:08;;;;;;;15.88;3.40;;;15.30;99.90;;;;;;6174913;23;19978;-89
2023/08/07 01:50:37;;;;;;;16.65;3.10;;;15.30;99.90;;;;;;6198851;23;20008;-88
2023/08/07 01:53:03;;;;;;;17.55;3.10;;;15.30;99.90;;;;;;6149854;23;20019;-89
2023/08/07 01:55:32;;;;;;;17.70;3.28;;;15.30;99.90;;;;;;6174295;23;20008;-87
2023/08/07 01:57:58;;;;;;;15.00;3.15;;;15.30;99.90;;;;;;6174500;23;20020;-87
2023/08/07 02:00:32;;;;;;;14.40;2.92;;;15.30;99.90;;;;;;6199196;23;20020;-87
2023/08/07 02:02:58;;;;;;;18.08;4.00;;;15.30;99.90;;;;;;6174633;23;20008;-89
2023/08/07 02:05:26;;;;;;;12.30;2.95;;;15.20;99.90;;;;;;6174980;23;20019;-87
2023/08/07 02:07:56;;;;;;;19.30;3.55;;;15.30;99.90;;;;;;6176483;23;20106;-88
2023/08/07 02:10:25;;;;;;;16.42;3.72;;;15.20;99.90;;;;;;6174397;23;20091;-87
2023/08/07 02:12:51;;;;;;;13.77;3.38;;;15.20;99.90;;;;;;6199201;23;20067;-88
2023/08/07 02:15:17;;;;;;;20.52;3.58;;;15.20;99.90;;;;;;6173825;23;20012;-88
2023/08/07 02:17:48;;;;;;;11.98;2.83;;;15.20;99.90;;;;;;6175505;23;20004;-89
2023/08/07 02:20:14;;;;;;;8.88;2.60;;;15.10;99.90;;;;;;6174624;23;20012;-88
2023/08/07 02:22:48;;;;;;;11.70;2.60;;;15.20;99.90;;;;;;6174602;23;20008;-89
2023/08/07 02:25:16;;;;;;;;;;;15.20;99.90;;;;;;6175819;23;20074;-89
2023/08/07 02:28:03;;;;;;;8.30;2.80;;;15.20;99.90;;;;;;6187206;23;19927;-88
2023/08/07 02:30:33;;;;;;;9.48;2.50;;;15.10;99.90;;;;;;6199329;23;20446;-89
2023/08/07 02:33:04;;;;;;;11.32;3.08;;;15.10;99.90;;;;;;6175048;23;20083;-88
2023/08/07 02:35:42;;;;;;;;;;;;;;;;;;;;;
2023/08/07 02:38:17;;;;;;;12.25;3.22;;;15.20;99.90;;;;;;6224582;23;20698;-89
2023/08/07 02:40:51;;;;;;;8.57;2.53;;;15.20;99.90;;;;;;6127480;23;20039;-89
2023/08/07 02:43:20;;;;;;;14.52;3.17;;;15.20;99.90;;;;;;6174858;23;20071;-89
2023/08/07 02:46:04;;;;;;;16.55;3.88;;;15.20;99.90;;;;;;6178587;23;20015;-89
2023/08/07 02:48:36;;;;;;;20.90;4.00;;;15.20;99.90;;;;;;6152610;23;20470;-90
2023/08/07 02:51:05;;;;;;;27.27;4.75;;;15.20;99.90;;;;;;6175612;23;20039;-91
2023/08/07 02:53:37;;;;;;;20.17;4.80;;;15.20;99.90;;;;;;6174831;23;20027;-90
2023/08/07 02:56:11;;;;;;;23.63;4.68;;;15.10;99.90;;;;;;6127824;23;20261;-90
2023/08/07 02:58:43;;;;;;;26.17;5.50;;;15.20;99.90;;;;;;6174234;23;20091;-89
2023/08/07 03:01:12;;;;;;;22.95;4.40;;;15.20;99.90;;;;;;6198814;23;20019;-89
2023/08/07 03:03:50;;;;;;;20.23;3.88;;;15.20;99.90;;;;;;6176012;23;20036;-90
2023/08/07 03:06:19;;;;;;;22.70;4.50;;;15.20;99.90;;;;;;6172952;23;20020;-91
2023/08/07 03:08:57;;;;;;;20.88;4.53;;;15.20;99.90;;;;;;6174215;23;20359;-91
2023/08/07 03:14:11;;;;;;;17.80;4.22;;;15.10;99.90;;;;;;6197864;23;20019;-90
2023/08/07 03:16:38;;;;;;;14.52;3.67;;;15.10;99.90;;;;;;6173719;23;20385;-89
2023/08/07 03:19:11;;;;;;;15.85;3.95;;;15.10;99.90;;;;;;6197638;23;20011;-90
2023/08/07 03:21:38;;;;;;;16.65;3.50;;;15.10;99.90;;;;;;6172864;23;20267;-90
2023/08/07 03:24:08;;;;;;;18.60;3.45;;;15.10;99.90;;;;;;6172676;23;20019;-90
2023/08/07 03:26:38;;;;;;;17.58;3.65;;;15.10;99.90;;;;;;6199334;23;20084;-89
2023/08/07 03:29:09;;;;;;;16.90;3.70;;;15.10;99.90;;;;;;6197306;23;20032;-89
2023/08/07 03:31:42;;;;;;;17.92;4.28;;;15.10;99.90;;;;;;6198797;23;20008;-89
2023/08/07 03:34:09;;;;;;;17.58;3.80;;;15.10;99.90;;;;;;6197801;23;20031;-90
2023/08/07 03:36:38;;;;;;;16.55;3.92;;;15.10;99.90;;;;;;6174145;23;20408;-89
2023/08/07 03:39:14;;;;;;;13.80;3.97;;;15.10;99.90;;;;;;6175883;23;20000;-90
2023/08/07 03:41:45;;;;;;;14.90;3.75;;;15.10;99.90;;;;;;6198273;23;20015;-91
2023/08/07 03:44:12;;;;;;;19.48;3.78;;;15.10;99.90;;;;;;6197756;23;20016;-90
2023/08/07 03:46:47;;;;;;;13.98;3.13;;;15.10;99.90;;;;;;6174020;23;20008;-89
2023/08/07 03:49:23;;;;;;;12.50;2.92;;;15.10;99.90;;;;;;6173521;23;20691;-90
2023/08/07 03:51:58;;;;;;;11.57;2.97;;;15.10;99.90;;;;;;6173941;23;20444;-88
2023/08/07 03:54:36;;;;;;;11.32;3.22;;;15.00;99.90;;;;;;6201504;23;20001;-89
2023/08/07 03:57:05;;;;;;;9.30;2.72;;;15.00;99.90;;;;;;6197274;23;20431;-89
2023/08/07 03:59:37;;;;;;;13.27;3.58;;;14.90;99.90;;;;;;6174449;23;20098;-89
2023/08/07 04:02:06;;;;;;;15.60;3.47;;;14.90;99.90;;;;;;6172641;23;20095;-91
2023/08/07 04:04:44;;;;;;;16.77;4.20;;;14.90;99.90;;;;;;6197221;23;20028;-90
2023/08/07 04:07:13;;;;;;;17.05;4.07;;;14.80;99.90;;;;;;6172574;23;20016;-91
2023/08/07 04:09:44;;;;;;;18.17;4.32;;;14.90;99.90;;;;;;6196980;23;20353;-90
2023/08/07 04:12:13;;;;;;;23.75;4.40;;;14.90;99.90;;;;;;6197285;23;20066;-89
2023/08/07 04:14:46;;;;;;;;;;;14.80;99.90;;;;;;6174359;23;20004;-91
2023/08/07 04:17:18;;;;;;;17.77;4.35;;;14.80;99.90;;;;;;6197573;23;19903;-89
2023/08/07 04:20:03;;;;;;;23.05;5.28;;;14.80;99.90;;;;;;6199306;23;20019;-90
2023/08/07 04:22:29;;;;;;;12.40;4.18;;;14.80;99.90;;;;;;6172537;23;20015;-90
2023/08/07 04:25:12;;;;;;;13.88;3.67;;;14.80;99.90;;;;;;6175447;23;20801;-90
2023/08/07 04:27:40;;;;;;;16.88;4.30;;;14.70;99.90;;;;;;6172870;23;20012;-89
2023/08/07 04:30:17;;;;;;;18.50;4.60;;;14.70;99.90;;;;;;6173772;23;20290;-90
2023/08/07 04:32:50;;;;;;;21.67;4.53;;;14.70;99.90;;;;;;6173085;23;20008;-90
2023/08/07 04:35:17;;;;;;;17.85;4.10;;;14.70;99.90;;;;;;6172088;23;20095;-91
2023/08/07 04:37:45;;;;;;;15.48;3.97;;;14.60;99.90;;;;;;6171624;23;20004;-88
2023/08/07 04:40:13;;;;;;;21.98;4.75;;;14.60;99.90;;;;;;6171539;23;20063;-89
2023/08/07 04:42:39;;;;;;;20.48;4.28;;;14.60;99.90;;;;;;6171830;23;20078;-89
2023/08/07 04:45:22;;;;;;;17.38;4.28;;;14.60;99.90;;;;;;6173714;23;20020;-89
2023/08/07 04:47:53;;;;;;;18.98;4.32;;;14.60;99.90;;;;;;6173222;23;20012;-90
2023/08/07 04:50:21;;;;;;;14.57;4.00;;;14.50;99.90;;;;;;6171712;23;20008;-89
2023/08/07 04:52:47;;;;;;;17.30;4.38;;;14.60;99.90;;;;;;6171382;23;20397;-91
2023/08/07 04:55:16;;;;;;;17.52;5.00;;;14.70;99.90;;;;;;6195919;23;20012;-89
2023/08/07 04:57:46;;;;;;;34.92;5.28;;;14.60;99.90;;;;;;6147582;23;20546;-90
2023/08/07 05:00:26;;;;;;;22.48;4.68;;;14.60;99.90;;;;;;6175475;23;20265;-88
2023/08/07 05:02:53;;;;;;;17.83;4.72;;;14.60;99.90;;;;;;6148293;23;20020;-91
2023/08/07 05:05:23;;;;;;;16.85;4.72;;;14.70;99.90;;;;;;6167184;23;20017;-90
2023/08/07 05:07:59;;;;;;;18.90;4.55;;;14.70;99.90;;;;;;6170699;23;20353;-89
2023/08/07 05:10:30;;;;;;;17.90;4.68;;;14.70;99.90;;;;;;6192809;23;20412;-89
2023/08/07 05:12:59;;;;;;;18.25;4.70;;;14.70;99.90;;;;;;6167534;23;20017;-89
2023/08/07 05:15:30;;;;;;;17.52;4.00;;;14.70;99.90;;;;;;6167916;23;20009;-88
2023/08/07 05:17:57;;;;;;;19.52;4.20;;;14.70;99.90;;;;;;6193734;23;20005;-90
2023/08/07 05:20:23;;;;;;;18.25;3.95;;;14.70;99.90;;;;;;6167867;23;20008;-89
2023/08/07 05:22:52;;;;;;;18.70;4.55;;;14.70;99.90;;;;;;6167531;23;20017;-89
2023/08/07 05:25:25;;;;;;;18.65;4.10;;;14.70;99.90;;;;;;6191787;23;20001;-88
2023/08/07 05:27:51;;;;;;;23.30;4.13;;;14.70;99.90;;;;;;6192890;23;20103;-89
2023/08/07 05:30:18;;;;;;;20.92;5.20;;;14.70;99.90;;;;;;6192104;23;20023;-89
2023/08/07 05:32:46;;;;;;;23.95;5.32;;;14.70;99.90;;;;;;6144128;23;20035;-89
2023/08/07 05:35:18;;;;;;;22.75;4.45;;;14.70;99.90;;;;;;6192465;23;20023;-89
2023/08/07 05:37:56;;;;;;;24.52;4.45;;;14.80;99.90;;;;;;6167607;23;20055;-90
2023/08/07 05:40:22;;;;;;;21.00;4.35;;;14.80;99.90;;;;;;6166785;23;20024;-89
2023/08/07 05:42:56;;;;;;;16.83;3.75;;;14.80;99.90;;;;;;6193335;23;20094;-90
2023/08/07 05:45:34;;;;;;;19.23;3.83;;;14.90;99.90;;;;;;6193615;23;20478;-88
2023/08/07 05:48:03;;;;;;;15.07;3.85;;;14.80;99.90;;;;;;6169404;23;20013;-89
2023/08/07 05:50:29;;;;;;;17.27;4.03;;;14.80;99.90;;;;;;6143915;23;20016;-90
2023/08/07 05:52:55;;;;;;;12.88;3.25;;;14.80;99.90;;;;;;6143424;23;20019;-89
2023/08/07 05:55:31;;;;;;;16.38;4.10;;;14.80;99.90;;;;;;6194415;23;20004;-88
2023/08/07 05:58:00;;;;;;;11.32;3.38;;;14.80;99.90;;;;;;6192992;23;20282;-89
2023/08/07 06:00:36;;;;;;;18.02;3.75;;;14.90;99.90;;;;;;6168783;23;20060;-89
2023/08/07 06:03:09;;;;;;;13.55;3.72;;;14.90;99.90;;;;;;6218013;23;20004;-90
2023/08/07 06:05:48;;;;;;;12.75;3.30;;;14.90;99.90;;;;;;6173010;23;20080;-90
2023/08/07 06:08:25;;;;;;;13.38;2.92;;;14.90;99.90;;;;;;6193131;23;20001;-89
2023/08/07 06:10:51;;;;;;;15.27;2.95;;;14.90;99.90;;;;;;6143412;23;20010;-87
2023/08/07 06:13:21;;;;;;;13.10;3.65;;;14.90;99.90;;;;;;6193281;23;20043;-91
2023/08/07 06:15:55;;;;;;;14.82;2.97;;;14.90;99.90;;;;;;6217835;23;20008;-89
2023/08/07 06:18:23;;;;;;;;;;;14.90;99.90;;;;;;6194208;23;20004;-89
2023/08/07 06:20:54;;;;;;;14.82;3.20;;;15.00;99.90;;;;;;6168355;23;19915;-89
2023/08/07 06:23:20;;;;;;;12.73;3.13;;;15.00;99.90;;;;;;6217573;23;20019;-90
2023/08/07 06:25:55;;;;;;;20.52;3.92;;;15.00;99.90;;;;;;6193093;23;20080;-88
